ORER/EBL METAR and TAF weather

Enter ICAO airport designator
Station Type Date Time Source
ORER METAR 2018/12/13 22:00 UTC NOAA

ORER 132200Z 33004KT 8000 NSC 05/05 Q1027 NOSIG


Station Type Date Time Source
ORER Decoded METAR 2018/12/13 22:00 UTC NOAA

Station name not available
Dec 13, 2018 - 05:00 PM EST / 2018.12.13 2200 UTC
Wind: from the NNW (330 degrees) at 5 MPH (4 KT):0
Visibility: 4 mile(s):0
Temperature: 41 F (5 C)
Dew Point: 41 F (5 C)
Relative Humidity: 100%
Pressure (altimeter): 30.33 in. Hg (1027 hPa)
ob: ORER 132200Z 33004KT 8000 NSC 05/05 Q1027 NOSIG
cycle: 22

Station Type Date Time Source
ORER TAF 2018/12/13 18:27 UTC NOAA

TAF ORER 131700Z 1318/1418 30006KT 5000 BR SCT030 SCT100
TEMPO 1318/1322 2000
BECMG 1402/1405 VRB03KT 0800 FG VV030 SCT030
BECMG 1408/1410 6000


Example: see airport list